sensor_id;sensor_type;location;lat;lon;timestamp;P1;durP1;ratioP1;P2;durP2;ratioP2
28862;SDS011;15994;51.796;13.006;2023-04-15T00:00:35;13.90;;;9.63;;
28862;SDS011;15994;51.796;13.006;2023-04-15T00:03:02;13.05;;;9.43;;
28862;SDS011;15994;51.796;13.006;2023-04-15T00:05:29;13.05;;;10.20;;
28862;SDS011;15994;51.796;13.006;2023-04-15T00:07:56;12.35;;;9.13;;
28862;SDS011;15994;51.796;13.006;2023-04-15T00:10:24;13.25;;;9.43;;
28862;SDS011;15994;51.796;13.006;2023-04-15T00:12:51;13.68;;;9.93;;
28862;SDS011;15994;51.796;13.006;2023-04-15T00:15:17;12.18;;;9.55;;
28862;SDS011;15994;51.796;13.006;2023-04-15T00:17:44;13.93;;;9.90;;
28862;SDS011;15994;51.796;13.006;2023-04-15T00:20:11;13.32;;;10.05;;
28862;SDS011;15994;51.796;13.006;2023-04-15T00:22:38;14.30;;;10.90;;
28862;SDS011;15994;51.796;13.006;2023-04-15T00:25:04;13.65;;;10.45;;
28862;SDS011;15994;51.796;13.006;2023-04-15T00:27:31;13.48;;;10.05;;
28862;SDS011;15994;51.796;13.006;2023-04-15T00:29:58;15.95;;;11.23;;
28862;SDS011;15994;51.796;13.006;2023-04-15T00:32:24;14.68;;;10.90;;
28862;SDS011;15994;51.796;13.006;2023-04-15T00:34:51;15.00;;;11.20;;
28862;SDS011;15994;51.796;13.006;2023-04-15T00:37:17;15.98;;;10.98;;
28862;SDS011;15994;51.796;13.006;2023-04-15T00:39:44;15.60;;;11.23;;
28862;SDS011;15994;51.796;13.006;2023-04-15T00:42:11;13.88;;;10.75;;
28862;SDS011;15994;51.796;13.006;2023-04-15T00:44:39;14.80;;;10.70;;
28862;SDS011;15994;51.796;13.006;2023-04-15T00:47:06;15.85;;;11.80;;
28862;SDS011;15994;51.796;13.006;2023-04-15T00:49:33;16.27;;;12.25;;
28862;SDS011;15994;51.796;13.006;2023-04-15T00:52:00;17.13;;;11.73;;
28862;SDS011;15994;51.796;13.006;2023-04-15T00:54:26;15.98;;;11.65;;
28862;SDS011;15994;51.796;13.006;2023-04-15T00:56:53;16.63;;;12.40;;
28862;SDS011;15994;51.796;13.006;2023-04-15T00:59:20;15.95;;;12.05;;
28862;SDS011;15994;51.796;13.006;2023-04-15T01:01:47;18.98;;;13.45;;
28862;SDS011;15994;51.796;13.006;2023-04-15T01:04:14;16.25;;;12.27;;
28862;SDS011;15994;51.796;13.006;2023-04-15T01:06:41;17.10;;;13.27;;
28862;SDS011;15994;51.796;13.006;2023-04-15T01:09:07;16.35;;;12.88;;
28862;SDS011;15994;51.796;13.006;2023-04-15T01:11:35;17.33;;;12.82;;
28862;SDS011;15994;51.796;13.006;2023-04-15T01:14:01;17.67;;;12.63;;
28862;SDS011;15994;51.796;13.006;2023-04-15T01:16:28;19.08;;;14.18;;
28862;SDS011;15994;51.796;13.006;2023-04-15T01:18:55;18.15;;;13.23;;
28862;SDS011;15994;51.796;13.006;2023-04-15T01:21:22;20.38;;;14.13;;
28862;SDS011;15994;51.796;13.006;2023-04-15T01:23:48;16.63;;;13.10;;
28862;SDS011;15994;51.796;13.006;2023-04-15T01:26:17;18.10;;;13.50;;
28862;SDS011;15994;51.796;13.006;2023-04-15T01:28:45;19.77;;;14.15;;
28862;SDS011;15994;51.796;13.006;2023-04-15T01:31:12;19.92;;;14.75;;
28862;SDS011;15994;51.796;13.006;2023-04-15T01:33:40;20.10;;;14.00;;
28862;SDS011;15994;51.796;13.006;2023-04-15T01:36:07;19.10;;;13.30;;
28862;SDS011;15994;51.796;13.006;2023-04-15T01:38:37;21.30;;;14.63;;
28862;SDS011;15994;51.796;13.006;2023-04-15T01:41:04;22.77;;;14.52;;
28862;SDS011;15994;51.796;13.006;2023-04-15T01:43:32;21.20;;;14.57;;
28862;SDS011;15994;51.796;13.006;2023-04-15T01:46:00;18.67;;;14.75;;
28862;SDS011;15994;51.796;13.006;2023-04-15T01:48:26;20.40;;;14.63;;
28862;SDS011;15994;51.796;13.006;2023-04-15T01:50:53;24.20;;;16.00;;
28862;SDS011;15994;51.796;13.006;2023-04-15T01:53:21;22.42;;;15.85;;
28862;SDS011;15994;51.796;13.006;2023-04-15T01:55:47;21.23;;;16.50;;
28862;SDS011;15994;51.796;13.006;2023-04-15T01:58:14;20.20;;;14.77;;
28862;SDS011;15994;51.796;13.006;2023-04-15T02:00:41;22.27;;;15.15;;
28862;SDS011;15994;51.796;13.006;2023-04-15T02:03:07;21.77;;;16.05;;
28862;SDS011;15994;51.796;13.006;2023-04-15T02:05:34;21.92;;;16.23;;
28862;SDS011;15994;51.796;13.006;2023-04-15T02:08:01;22.83;;;15.88;;
28862;SDS011;15994;51.796;13.006;2023-04-15T02:10:27;22.33;;;16.20;;
28862;SDS011;15994;51.796;13.006;2023-04-15T02:12:54;23.70;;;17.15;;
28862;SDS011;15994;51.796;13.006;2023-04-15T02:15:21;23.15;;;16.35;;
28862;SDS011;15994;51.796;13.006;2023-04-15T02:17:47;23.23;;;16.77;;
28862;SDS011;15994;51.796;13.006;2023-04-15T02:20:17;22.60;;;16.33;;
28862;SDS011;15994;51.796;13.006;2023-04-15T02:22:45;21.83;;;16.67;;
28862;SDS011;15994;51.796;13.006;2023-04-15T02:25:12;24.60;;;17.15;;
28862;SDS011;15994;51.796;13.006;2023-04-15T02:27:40;23.77;;;17.77;;
28862;SDS011;15994;51.796;13.006;2023-04-15T02:30:07;24.63;;;17.38;;
28862;SDS011;15994;51.796;13.006;2023-04-15T02:32:34;26.77;;;17.63;;
28862;SDS011;15994;51.796;13.006;2023-04-15T02:35:05;24.13;;;17.10;;
28862;SDS011;15994;51.796;13.006;2023-04-15T02:37:34;25.88;;;17.67;;
28862;SDS011;15994;51.796;13.006;2023-04-15T02:40:06;25.33;;;17.65;;
28862;SDS011;15994;51.796;13.006;2023-04-15T02:42:35;26.00;;;18.42;;
28862;SDS011;15994;51.796;13.006;2023-04-15T02:45:01;27.13;;;18.02;;
28862;SDS011;15994;51.796;13.006;2023-04-15T02:47:28;26.60;;;19.08;;
28862;SDS011;15994;51.796;13.006;2023-04-15T02:49:54;26.08;;;18.23;;
28862;SDS011;15994;51.796;13.006;2023-04-15T02:52:22;27.17;;;19.38;;
28862;SDS011;15994;51.796;13.006;2023-04-15T02:54:49;28.08;;;19.20;;
28862;SDS011;15994;51.796;13.006;2023-04-15T02:57:16;29.20;;;19.77;;
28862;SDS011;15994;51.796;13.006;2023-04-15T02:59:42;26.65;;;19.17;;
28862;SDS011;15994;51.796;13.006;2023-04-15T03:02:09;30.65;;;20.73;;
28862;SDS011;15994;51.796;13.006;2023-04-15T03:04:35;27.25;;;19.85;;
28862;SDS011;15994;51.796;13.006;2023-04-15T03:07:01;29.88;;;19.90;;
28862;SDS011;15994;51.796;13.006;2023-04-15T03:09:28;28.85;;;19.90;;
28862;SDS011;15994;51.796;13.006;2023-04-15T03:11:54;27.73;;;19.60;;
28862;SDS011;15994;51.796;13.006;2023-04-15T03:14:21;28.98;;;20.38;;
28862;SDS011;15994;51.796;13.006;2023-04-15T03:16:48;28.17;;;20.65;;
28862;SDS011;15994;51.796;13.006;2023-04-15T03:19:15;33.17;;;22.13;;
28862;SDS011;15994;51.796;13.006;2023-04-15T03:21:42;30.60;;;20.88;;
28862;SDS011;15994;51.796;13.006;2023-04-15T03:24:08;27.90;;;20.45;;
28862;SDS011;15994;51.796;13.006;2023-04-15T03:26:35;31.25;;;21.35;;
28862;SDS011;15994;51.796;13.006;2023-04-15T03:29:01;33.33;;;21.33;;
28862;SDS011;15994;51.796;13.006;2023-04-15T03:31:28;28.65;;;20.70;;
28862;SDS011;15994;51.796;13.006;2023-04-15T03:33:54;34.22;;;22.63;;
28862;SDS011;15994;51.796;13.006;2023-04-15T03:36:21;31.60;;;21.75;;
28862;SDS011;15994;51.796;13.006;2023-04-15T03:38:47;34.85;;;22.92;;
28862;SDS011;15994;51.796;13.006;2023-04-15T03:41:14;31.00;;;22.40;;
28862;SDS011;15994;51.796;13.006;2023-04-15T03:43:41;32.08;;;22.27;;
28862;SDS011;15994;51.796;13.006;2023-04-15T03:46:07;32.40;;;22.23;;
28862;SDS011;15994;51.796;13.006;2023-04-15T03:48:34;34.08;;;23.30;;
28862;SDS011;15994;51.796;13.006;2023-04-15T03:51:00;35.88;;;24.02;;
28862;SDS011;15994;51.796;13.006;2023-04-15T03:53:27;34.67;;;22.50;;
28862;SDS011;15994;51.796;13.006;2023-04-15T03:55:53;36.97;;;24.08;;
28862;SDS011;15994;51.796;13.006;2023-04-15T03:58:20;37.40;;;25.30;;
28862;SDS011;15994;51.796;13.006;2023-04-15T04:00:46;36.42;;;23.13;;
28862;SDS011;15994;51.796;13.006;2023-04-15T04:03:13;36.35;;;24.38;;
28862;SDS011;15994;51.796;13.006;2023-04-15T04:05:39;37.65;;;25.67;;
28862;SDS011;15994;51.796;13.006;2023-04-15T04:08:06;38.90;;;25.83;;
28862;SDS011;15994;51.796;13.006;2023-04-15T04:10:33;38.90;;;26.63;;
28862;SDS011;15994;51.796;13.006;2023-04-15T04:12:59;40.20;;;27.08;;
28862;SDS011;15994;51.796;13.006;2023-04-15T04:15:26;42.10;;;27.38;;
28862;SDS011;15994;51.796;13.006;2023-04-15T04:17:53;43.08;;;28.08;;
28862;SDS011;15994;51.796;13.006;2023-04-15T04:20:20;45.40;;;29.65;;
28862;SDS011;15994;51.796;13.006;2023-04-15T04:22:46;43.38;;;27.75;;
28862;SDS011;15994;51.796;13.006;2023-04-15T04:25:13;46.65;;;29.88;;
28862;SDS011;15994;51.796;13.006;2023-04-15T04:27:40;46.35;;;29.58;;
28862;SDS011;15994;51.796;13.006;2023-04-15T04:30:07;50.60;;;32.97;;
28862;SDS011;15994;51.796;13.006;2023-04-15T04:32:34;50.47;;;32.50;;
28862;SDS011;15994;51.796;13.006;2023-04-15T04:35:00;51.85;;;32.97;;
28862;SDS011;15994;51.796;13.006;2023-04-15T04:37:26;53.42;;;32.60;;
28862;SDS011;15994;51.796;13.006;2023-04-15T04:39:53;52.45;;;32.78;;
28862;SDS011;15994;51.796;13.006;2023-04-15T04:42:20;52.47;;;32.45;;
28862;SDS011;15994;51.796;13.006;2023-04-15T04:44:46;53.72;;;33.75;;
28862;SDS011;15994;51.796;13.006;2023-04-15T04:47:13;52.70;;;33.58;;
28862;SDS011;15994;51.796;13.006;2023-04-15T04:49:39;56.50;;;34.72;;
28862;SDS011;15994;51.796;13.006;2023-04-15T04:52:06;58.30;;;35.03;;
28862;SDS011;15994;51.796;13.006;2023-04-15T04:54:33;58.05;;;34.47;;
28862;SDS011;15994;51.796;13.006;2023-04-15T04:56:59;57.92;;;35.92;;
28862;SDS011;15994;51.796;13.006;2023-04-15T04:59:26;59.30;;;36.42;;
28862;SDS011;15994;51.796;13.006;2023-04-15T05:01:52;66.25;;;38.97;;
28862;SDS011;15994;51.796;13.006;2023-04-15T05:04:19;64.88;;;38.28;;
28862;SDS011;15994;51.796;13.006;2023-04-15T05:06:45;64.85;;;38.70;;
28862;SDS011;15994;51.796;13.006;2023-04-15T05:09:12;63.63;;;38.90;;
28862;SDS011;15994;51.796;13.006;2023-04-15T05:11:38;65.95;;;39.90;;
28862;SDS011;15994;51.796;13.006;2023-04-15T05:14:05;67.10;;;39.05;;
28862;SDS011;15994;51.796;13.006;2023-04-15T05:16:31;68.45;;;41.15;;
28862;SDS011;15994;51.796;13.006;2023-04-15T05:18:58;66.32;;;39.55;;
28862;SDS011;15994;51.796;13.006;2023-04-15T05:21:24;67.85;;;40.47;;
28862;SDS011;15994;51.796;13.006;2023-04-15T05:23:51;66.50;;;39.63;;
28862;SDS011;15994;51.796;13.006;2023-04-15T05:26:18;70.85;;;41.70;;
28862;SDS011;15994;51.796;13.006;2023-04-15T05:28:45;68.70;;;41.90;;
28862;SDS011;15994;51.796;13.006;2023-04-15T05:31:12;70.95;;;42.03;;
28862;SDS011;15994;51.796;13.006;2023-04-15T05:33:38;70.72;;;41.92;;
28862;SDS011;15994;51.796;13.006;2023-04-15T05:36:05;72.72;;;42.95;;
28862;SDS011;15994;51.796;13.006;2023-04-15T05:38:32;74.50;;;43.65;;
28862;SDS011;15994;51.796;13.006;2023-04-15T05:40:59;73.53;;;43.53;;
28862;SDS011;15994;51.796;13.006;2023-04-15T05:43:25;77.28;;;43.75;;
28862;SDS011;15994;51.796;13.006;2023-04-15T05:45:52;73.35;;;43.55;;
28862;SDS011;15994;51.796;13.006;2023-04-15T05:48:18;76.43;;;43.78;;
28862;SDS011;15994;51.796;13.006;2023-04-15T05:50:45;80.10;;;44.45;;
28862;SDS011;15994;51.796;13.006;2023-04-15T05:53:12;83.20;;;46.55;;
28862;SDS011;15994;51.796;13.006;2023-04-15T05:55:39;79.95;;;45.42;;
28862;SDS011;15994;51.796;13.006;2023-04-15T05:58:05;78.80;;;46.13;;
28862;SDS011;15994;51.796;13.006;2023-04-15T06:00:32;79.82;;;46.10;;
28862;SDS011;15994;51.796;13.006;2023-04-15T06:02:58;83.03;;;44.97;;
28862;SDS011;15994;51.796;13.006;2023-04-15T06:05:25;79.60;;;45.88;;
28862;SDS011;15994;51.796;13.006;2023-04-15T06:07:51;81.85;;;48.28;;
28862;SDS011;15994;51.796;13.006;2023-04-15T06:10:18;84.90;;;45.15;;
28862;SDS011;15994;51.796;13.006;2023-04-15T06:12:44;81.82;;;47.58;;
28862;SDS011;15994;51.796;13.006;2023-04-15T06:15:11;79.03;;;45.63;;
28862;SDS011;15994;51.796;13.006;2023-04-15T06:17:38;78.70;;;46.83;;
28862;SDS011;15994;51.796;13.006;2023-04-15T06:20:04;78.18;;;45.40;;
28862;SDS011;15994;51.796;13.006;2023-04-15T06:22:32;81.07;;;46.92;;
28862;SDS011;15994;51.796;13.006;2023-04-15T06:24:59;84.55;;;47.53;;
28862;SDS011;15994;51.796;13.006;2023-04-15T06:27:25;78.85;;;46.50;;
28862;SDS011;15994;51.796;13.006;2023-04-15T06:29:52;81.03;;;46.47;;
28862;SDS011;15994;51.796;13.006;2023-04-15T06:32:18;78.90;;;45.53;;
28862;SDS011;15994;51.796;13.006;2023-04-15T06:34:45;75.57;;;44.92;;
28862;SDS011;15994;51.796;13.006;2023-04-15T06:37:11;76.28;;;44.45;;
28862;SDS011;15994;51.796;13.006;2023-04-15T06:39:40;76.63;;;46.22;;
28862;SDS011;15994;51.796;13.006;2023-04-15T06:42:07;78.18;;;44.33;;
28862;SDS011;15994;51.796;13.006;2023-04-15T06:44:35;75.88;;;45.17;;
28862;SDS011;15994;51.796;13.006;2023-04-15T06:47:02;79.50;;;45.63;;
28862;SDS011;15994;51.796;13.006;2023-04-15T06:49:28;78.07;;;46.03;;
28862;SDS011;15994;51.796;13.006;2023-04-15T06:51:55;73.80;;;44.13;;
28862;SDS011;15994;51.796;13.006;2023-04-15T06:54:21;76.90;;;45.13;;
28862;SDS011;15994;51.796;13.006;2023-04-15T06:56:48;76.85;;;43.38;;
28862;SDS011;15994;51.796;13.006;2023-04-15T06:59:15;77.25;;;45.50;;
28862;SDS011;15994;51.796;13.006;2023-04-15T07:01:41;68.07;;;43.45;;
28862;SDS011;15994;51.796;13.006;2023-04-15T07:04:08;74.32;;;44.58;;
28862;SDS011;15994;51.796;13.006;2023-04-15T07:06:36;72.00;;;43.42;;
28862;SDS011;15994;51.796;13.006;2023-04-15T07:09:02;70.07;;;43.85;;
28862;SDS011;15994;51.796;13.006;2023-04-15T07:11:29;71.72;;;42.38;;
28862;SDS011;15994;51.796;13.006;2023-04-15T07:13:59;70.88;;;41.83;;
28862;SDS011;15994;51.796;13.006;2023-04-15T07:16:25;70.32;;;44.28;;
28862;SDS011;15994;51.796;13.006;2023-04-15T07:18:52;62.17;;;40.28;;
28862;SDS011;15994;51.796;13.006;2023-04-15T07:21:19;69.50;;;41.42;;
28862;SDS011;15994;51.796;13.006;2023-04-15T07:23:46;68.38;;;41.55;;
28862;SDS011;15994;51.796;13.006;2023-04-15T07:26:12;68.40;;;41.70;;
28862;SDS011;15994;51.796;13.006;2023-04-15T07:28:39;62.97;;;41.15;;
28862;SDS011;15994;51.796;13.006;2023-04-15T07:31:05;62.70;;;40.22;;
28862;SDS011;15994;51.796;13.006;2023-04-15T07:33:32;63.05;;;41.80;;
28862;SDS011;15994;51.796;13.006;2023-04-15T07:35:58;61.80;;;41.72;;
28862;SDS011;15994;51.796;13.006;2023-04-15T07:38:25;60.20;;;39.10;;
28862;SDS011;15994;51.796;13.006;2023-04-15T07:40:52;60.65;;;39.40;;
28862;SDS011;15994;51.796;13.006;2023-04-15T07:43:18;58.15;;;40.28;;
28862;SDS011;15994;51.796;13.006;2023-04-15T07:45:45;59.88;;;38.92;;
28862;SDS011;15994;51.796;13.006;2023-04-15T07:48:12;58.35;;;39.70;;
28862;SDS011;15994;51.796;13.006;2023-04-15T07:50:38;55.67;;;38.47;;
28862;SDS011;15994;51.796;13.006;2023-04-15T07:53:05;54.88;;;38.75;;
28862;SDS011;15994;51.796;13.006;2023-04-15T07:55:32;58.15;;;37.70;;
28862;SDS011;15994;51.796;13.006;2023-04-15T07:57:58;55.08;;;39.15;;
28862;SDS011;15994;51.796;13.006;2023-04-15T08:00:25;57.75;;;39.58;;
28862;SDS011;15994;51.796;13.006;2023-04-15T08:02:52;55.47;;;39.35;;
28862;SDS011;15994;51.796;13.006;2023-04-15T08:05:21;57.95;;;39.90;;
28862;SDS011;15994;51.796;13.006;2023-04-15T08:07:47;53.03;;;37.92;;
28862;SDS011;15994;51.796;13.006;2023-04-15T08:10:14;54.40;;;39.30;;
28862;SDS011;15994;51.796;13.006;2023-04-15T08:12:41;51.30;;;37.75;;
28862;SDS011;15994;51.796;13.006;2023-04-15T08:15:07;50.20;;;37.83;;
28862;SDS011;15994;51.796;13.006;2023-04-15T08:17:34;52.83;;;38.17;;
28862;SDS011;15994;51.796;13.006;2023-04-15T08:20:02;50.28;;;36.95;;
28862;SDS011;15994;51.796;13.006;2023-04-15T08:22:29;48.35;;;36.70;;
28862;SDS011;15994;51.796;13.006;2023-04-15T08:24:56;45.50;;;35.38;;
28862;SDS011;15994;51.796;13.006;2023-04-15T08:27:23;47.78;;;35.60;;
28862;SDS011;15994;51.796;13.006;2023-04-15T08:29:49;46.03;;;36.80;;
28862;SDS011;15994;51.796;13.006;2023-04-15T08:32:16;47.40;;;36.40;;
28862;SDS011;15994;51.796;13.006;2023-04-15T08:34:43;45.33;;;36.15;;
28862;SDS011;15994;51.796;13.006;2023-04-15T08:37:09;51.28;;;37.10;;
28862;SDS011;15994;51.796;13.006;2023-04-15T08:39:36;45.50;;;34.80;;
28862;SDS011;15994;51.796;13.006;2023-04-15T08:42:03;43.28;;;33.72;;
28862;SDS011;15994;51.796;13.006;2023-04-15T08:44:36;43.38;;;34.90;;
28862;SDS011;15994;51.796;13.006;2023-04-15T08:47:05;44.88;;;33.88;;
28862;SDS011;15994;51.796;13.006;2023-04-15T08:49:34;39.67;;;32.13;;
28862;SDS011;15994;51.796;13.006;2023-04-15T08:52:05;44.28;;;32.90;;
28862;SDS011;15994;51.796;13.006;2023-04-15T08:54:32;42.50;;;33.22;;
28862;SDS011;15994;51.796;13.006;2023-04-15T08:56:59;39.10;;;32.25;;
28862;SDS011;15994;51.796;13.006;2023-04-15T08:59:26;40.28;;;31.30;;
28862;SDS011;15994;51.796;13.006;2023-04-15T09:01:54;40.90;;;33.50;;
28862;SDS011;15994;51.796;13.006;2023-04-15T09:04:22;42.38;;;30.58;;
28862;SDS011;15994;51.796;13.006;2023-04-15T09:06:48;39.20;;;32.00;;
28862;SDS011;15994;51.796;13.006;2023-04-15T09:09:16;37.75;;;29.95;;
28862;SDS011;15994;51.796;13.006;2023-04-15T09:11:42;38.90;;;29.85;;
28862;SDS011;15994;51.796;13.006;2023-04-15T09:14:09;38.35;;;30.58;;
28862;SDS011;15994;51.796;13.006;2023-04-15T09:16:55;38.60;;;31.30;;
28862;SDS011;15994;51.796;13.006;2023-04-15T09:19:28;34.53;;;28.08;;
28862;SDS011;15994;51.796;13.006;2023-04-15T09:21:57;36.40;;;28.52;;
28862;SDS011;15994;51.796;13.006;2023-04-15T09:24:27;36.15;;;30.35;;
28862;SDS011;15994;51.796;13.006;2023-04-15T09:27:01;37.33;;;30.27;;
28862;SDS011;15994;51.796;13.006;2023-04-15T09:29:28;37.83;;;29.63;;
28862;SDS011;15994;51.796;13.006;2023-04-15T09:31:55;35.35;;;29.45;;
28862;SDS011;15994;51.796;13.006;2023-04-15T09:34:22;36.90;;;29.70;;
28862;SDS011;15994;51.796;13.006;2023-04-15T09:37:01;35.88;;;29.38;;
28862;SDS011;15994;51.796;13.006;2023-04-15T09:39:34;34.70;;;28.88;;
28862;SDS011;15994;51.796;13.006;2023-04-15T09:42:11;34.45;;;28.55;;
28862;SDS011;15994;51.796;13.006;2023-04-15T09:44:37;34.22;;;28.25;;
28862;SDS011;15994;51.796;13.006;2023-04-15T09:47:04;35.33;;;29.27;;
28862;SDS011;15994;51.796;13.006;2023-04-15T09:49:31;33.15;;;28.00;;
28862;SDS011;15994;51.796;13.006;2023-04-15T09:52:01;36.45;;;29.05;;
28862;SDS011;15994;51.796;13.006;2023-04-15T09:54:36;37.55;;;28.98;;
28862;SDS011;15994;51.796;13.006;2023-04-15T09:57:04;34.65;;;29.02;;
28862;SDS011;15994;51.796;13.006;2023-04-15T09:59:32;34.55;;;30.20;;
28862;SDS011;15994;51.796;13.006;2023-04-15T10:01:58;35.75;;;28.88;;
28862;SDS011;15994;51.796;13.006;2023-04-15T10:04:26;31.85;;;28.27;;
28862;SDS011;15994;51.796;13.006;2023-04-15T10:06:53;35.05;;;29.55;;
28862;SDS011;15994;51.796;13.006;2023-04-15T10:09:20;32.90;;;27.65;;
28862;SDS011;15994;51.796;13.006;2023-04-15T10:11:47;29.77;;;26.35;;
28862;SDS011;15994;51.796;13.006;2023-04-15T10:14:15;30.02;;;26.60;;
28862;SDS011;15994;51.796;13.006;2023-04-15T10:16:43;32.40;;;26.02;;
28862;SDS011;15994;51.796;13.006;2023-04-15T10:19:13;30.10;;;26.40;;
28862;SDS011;15994;51.796;13.006;2023-04-15T10:21:43;28.80;;;25.70;;
28862;SDS011;15994;51.796;13.006;2023-04-15T10:24:11;31.08;;;26.40;;
28862;SDS011;15994;51.796;13.006;2023-04-15T10:26:38;28.95;;;25.05;;
28862;SDS011;15994;51.796;13.006;2023-04-15T10:29:05;29.00;;;24.13;;
28862;SDS011;15994;51.796;13.006;2023-04-15T10:31:33;31.95;;;25.30;;
28862;SDS011;15994;51.796;13.006;2023-04-15T10:34:02;32.00;;;27.02;;
28862;SDS011;15994;51.796;13.006;2023-04-15T10:36:30;31.45;;;27.67;;
28862;SDS011;15994;51.796;13.006;2023-04-15T10:38:57;33.33;;;29.48;;
28862;SDS011;15994;51.796;13.006;2023-04-15T10:41:25;30.42;;;26.00;;
28862;SDS011;15994;51.796;13.006;2023-04-15T10:51:35;28.13;;;24.95;;
28862;SDS011;15994;51.796;13.006;2023-04-15T10:54:07;27.17;;;23.13;;
28862;SDS011;15994;51.796;13.006;2023-04-15T10:56:40;28.00;;;24.95;;
28862;SDS011;15994;51.796;13.006;2023-04-15T10:59:08;28.30;;;24.40;;
28862;SDS011;15994;51.796;13.006;2023-04-15T11:01:51;27.45;;;23.30;;
28862;SDS011;15994;51.796;13.006;2023-04-15T11:12:39;28.58;;;23.90;;
28862;SDS011;15994;51.796;13.006;2023-04-15T11:15:26;27.58;;;23.70;;
28862;SDS011;15994;51.796;13.006;2023-04-15T11:18:07;24.60;;;20.98;;
28862;SDS011;15994;51.796;13.006;2023-04-15T11:20:36;24.02;;;21.27;;
28862;SDS011;15994;51.796;13.006;2023-04-15T11:23:07;22.65;;;18.88;;
28862;SDS011;15994;51.796;13.006;2023-04-15T11:25:34;22.95;;;20.52;;
28862;SDS011;15994;51.796;13.006;2023-04-15T11:28:02;21.55;;;19.25;;
28862;SDS011;15994;51.796;13.006;2023-04-15T11:30:31;21.08;;;18.35;;
28862;SDS011;15994;51.796;13.006;2023-04-15T11:33:00;20.40;;;18.27;;
28862;SDS011;15994;51.796;13.006;2023-04-15T11:35:27;20.02;;;17.92;;
28862;SDS011;15994;51.796;13.006;2023-04-15T11:37:55;17.83;;;15.75;;
28862;SDS011;15994;51.796;13.006;2023-04-15T11:40:27;20.58;;;16.83;;
28862;SDS011;15994;51.796;13.006;2023-04-15T11:45:36;18.10;;;16.20;;
28862;SDS011;15994;51.796;13.006;2023-04-15T11:48:12;19.73;;;17.73;;
28862;SDS011;15994;51.796;13.006;2023-04-15T11:50:39;20.48;;;17.70;;
28862;SDS011;15994;51.796;13.006;2023-04-15T11:53:07;19.05;;;16.85;;
28862;SDS011;15994;51.796;13.006;2023-04-15T11:55:41;19.17;;;17.15;;
28862;SDS011;15994;51.796;13.006;2023-04-15T11:58:12;18.58;;;16.38;;
28862;SDS011;15994;51.796;13.006;2023-04-15T12:00:55;19.42;;;17.33;;
28862;SDS011;15994;51.796;13.006;2023-04-15T12:03:23;18.20;;;16.02;;
28862;SDS011;15994;51.796;13.006;2023-04-15T12:06:06;16.73;;;15.02;;
28862;SDS011;15994;51.796;13.006;2023-04-15T12:11:26;19.20;;;17.20;;
28862;SDS011;15994;51.796;13.006;2023-04-15T12:16:40;17.65;;;15.77;;
28862;SDS011;15994;51.796;13.006;2023-04-15T12:19:10;18.60;;;16.38;;
28862;SDS011;15994;51.796;13.006;2023-04-15T12:21:39;18.95;;;16.95;;
28862;SDS011;15994;51.796;13.006;2023-04-15T12:24:07;22.20;;;18.73;;
28862;SDS011;15994;51.796;13.006;2023-04-15T12:26:45;19.30;;;16.88;;
28862;SDS011;15994;51.796;13.006;2023-04-15T12:29:24;17.75;;;15.68;;
28862;SDS011;15994;51.796;13.006;2023-04-15T12:31:55;18.25;;;14.95;;
28862;SDS011;15994;51.796;13.006;2023-04-15T12:34:30;16.33;;;14.55;;
28862;SDS011;15994;51.796;13.006;2023-04-15T12:36:59;14.55;;;13.02;;
28862;SDS011;15994;51.796;13.006;2023-04-15T12:39:28;14.50;;;13.00;;
28862;SDS011;15994;51.796;13.006;2023-04-15T12:41:56;16.25;;;14.00;;
28862;SDS011;15994;51.796;13.006;2023-04-15T12:44:24;14.43;;;12.93;;
28862;SDS011;15994;51.796;13.006;2023-04-15T12:46:51;17.20;;;15.43;;
28862;SDS011;15994;51.796;13.006;2023-04-15T12:49:18;13.57;;;12.18;;
28862;SDS011;15994;51.796;13.006;2023-04-15T12:51:47;15.23;;;13.30;;
28862;SDS011;15994;51.796;13.006;2023-04-15T12:54:15;13.63;;;12.20;;
28862;SDS011;15994;51.796;13.006;2023-04-15T12:56:43;15.05;;;13.55;;
28862;SDS011;15994;51.796;13.006;2023-04-15T12:59:13;15.98;;;13.75;;
28862;SDS011;15994;51.796;13.006;2023-04-15T13:01:40;15.15;;;13.65;;
28862;SDS011;15994;51.796;13.006;2023-04-15T13:04:06;15.38;;;13.70;;
28862;SDS011;15994;51.796;13.006;2023-04-15T13:06:33;15.10;;;13.55;;
28862;SDS011;15994;51.796;13.006;2023-04-15T13:09:00;15.65;;;13.68;;
28862;SDS011;15994;51.796;13.006;2023-04-15T13:11:27;14.77;;;13.23;;
28862;SDS011;15994;51.796;13.006;2023-04-15T13:13:57;16.63;;;14.93;;
28862;SDS011;15994;51.796;13.006;2023-04-15T13:16:26;16.70;;;14.90;;
28862;SDS011;15994;51.796;13.006;2023-04-15T13:18:52;15.40;;;14.00;;
28862;SDS011;15994;51.796;13.006;2023-04-15T13:21:19;15.60;;;14.00;;
28862;SDS011;15994;51.796;13.006;2023-04-15T13:23:45;17.00;;;15.30;;
28862;SDS011;15994;51.796;13.006;2023-04-15T13:26:14;16.65;;;12.93;;
28862;SDS011;15994;51.796;13.006;2023-04-15T13:28:41;13.52;;;12.20;;
28862;SDS011;15994;51.796;13.006;2023-04-15T13:31:08;14.43;;;12.93;;
28862;SDS011;15994;51.796;13.006;2023-04-15T13:33:34;13.23;;;11.93;;
28862;SDS011;15994;51.796;13.006;2023-04-15T13:36:01;15.00;;;11.57;;
28862;SDS011;15994;51.796;13.006;2023-04-15T13:38:28;12.65;;;11.45;;
28862;SDS011;15994;51.796;13.006;2023-04-15T13:40:54;14.52;;;13.02;;
28862;SDS011;15994;51.796;13.006;2023-04-15T13:43:21;12.73;;;11.55;;
28862;SDS011;15994;51.796;13.006;2023-04-15T13:45:47;11.52;;;10.32;;
28862;SDS011;15994;51.796;13.006;2023-04-15T13:48:14;9.98;;;9.00;;
28862;SDS011;15994;51.796;13.006;2023-04-15T13:50:41;11.98;;;10.70;;
28862;SDS011;15994;51.796;13.006;2023-04-15T13:53:09;11.30;;;10.20;;
28862;SDS011;15994;51.796;13.006;2023-04-15T13:55:36;13.05;;;11.48;;
28862;SDS011;15994;51.796;13.006;2023-04-15T13:58:05;12.27;;;10.85;;
28862;SDS011;15994;51.796;13.006;2023-04-15T14:00:33;11.63;;;10.48;;
28862;SDS011;15994;51.796;13.006;2023-04-15T14:02:59;12.65;;;11.35;;
28862;SDS011;15994;51.796;13.006;2023-04-15T14:05:26;11.18;;;10.02;;
28862;SDS011;15994;51.796;13.006;2023-04-15T14:07:52;10.93;;;9.82;;
28862;SDS011;15994;51.796;13.006;2023-04-15T14:10:19;11.65;;;10.15;;
28862;SDS011;15994;51.796;13.006;2023-04-15T14:12:45;11.93;;;10.80;;
28862;SDS011;15994;51.796;13.006;2023-04-15T14:15:12;11.43;;;10.32;;
28862;SDS011;15994;51.796;13.006;2023-04-15T14:17:38;13.05;;;11.68;;
28862;SDS011;15994;51.796;13.006;2023-04-15T14:20:06;13.00;;;11.70;;
28862;SDS011;15994;51.796;13.006;2023-04-15T14:22:33;11.82;;;10.73;;
28862;SDS011;15994;51.796;13.006;2023-04-15T14:25:00;12.90;;;11.02;;
28862;SDS011;15994;51.796;13.006;2023-04-15T14:27:27;12.48;;;11.27;;
28862;SDS011;15994;51.796;13.006;2023-04-15T14:29:53;14.02;;;11.23;;
28862;SDS011;15994;51.796;13.006;2023-04-15T14:32:21;13.52;;;12.13;;
28862;SDS011;15994;51.796;13.006;2023-04-15T14:34:49;13.10;;;11.80;;